createdAt,value
2019-02-24T00:00:38.256Z,72.49
2019-02-24T00:01:38.294Z,72.39
2019-02-24T00:02:38.394Z,72.49
2019-02-24T00:03:38.305Z,72.49
2019-02-24T00:04:38.633Z,72.11
2019-02-24T00:05:38.416Z,72.30
2019-02-24T00:06:38.436Z,72.36
2019-02-24T00:07:38.416Z,72.36
2019-02-24T00:08:38.455Z,72.59
2019-02-24T00:10:38.560Z,72.36
2019-02-24T00:11:38.614Z,72.17
2019-02-24T00:12:38.580Z,72.68
2019-02-24T00:13:38.658Z,72.68
2019-02-24T00:15:38.669Z,72.74
2019-02-24T00:16:38.783Z,72.55
2019-02-24T00:17:39.047Z,72.55
2019-02-24T00:18:38.764Z,72.45
2019-02-24T00:19:38.845Z,72.49
2019-02-24T00:20:38.834Z,72.74
2019-02-24T00:21:38.916Z,72.45
2019-02-24T00:23:38.972Z,72.49
2019-02-24T00:24:39.259Z,72.74
2019-02-24T00:25:39.046Z,72.45
2019-02-24T00:27:39.098Z,72.55
2019-02-24T00:28:39.083Z,72.45
2019-02-24T00:29:39.164Z,72.55
2019-02-24T00:30:39.446Z,72.65
2019-02-24T00:31:39.177Z,72.36
2019-02-24T00:32:39.262Z,72.36
2019-02-24T00:33:39.286Z,72.65
2019-02-24T00:34:39.269Z,72.74
2019-02-24T00:35:39.355Z,72.65
2019-02-24T00:36:39.645Z,72.55
2019-02-24T00:37:39.414Z,72.74
2019-02-24T00:38:39.454Z,72.36
2019-02-24T00:39:39.428Z,72.65
2019-02-24T00:40:39.461Z,72.94
2019-02-24T00:41:39.496Z,72.45
2019-02-24T00:42:39.895Z,72.45
2019-02-24T00:43:39.552Z,72.65
2019-02-24T00:44:39.583Z,72.36
2019-02-24T00:45:39.667Z,72.45
2019-02-24T00:46:39.694Z,72.45
2019-02-24T00:47:39.674Z,72.45
2019-02-24T00:48:39.759Z,72.45
2019-02-24T00:49:40.041Z,72.74
2019-02-24T00:50:39.819Z,72.55
2019-02-24T00:51:39.801Z,72.55
2019-02-24T00:53:39.866Z,72.84
2019-02-24T00:54:39.897Z,72.84
2019-02-24T00:55:39.981Z,72.94
2019-02-24T00:56:40.264Z,72.84
2019-02-24T00:58:40.023Z,73.03
2019-02-24T01:00:40.133Z,72.84
2019-02-24T01:01:40.164Z,72.84
2019-02-24T01:02:40.216Z,72.84
2019-02-24T01:03:40.475Z,72.94
2019-02-24T01:04:40.209Z,72.94
2019-02-24T01:05:40.295Z,73.32
2019-02-24T01:06:40.321Z,73.90
2019-02-24T01:07:40.349Z,73.71
2019-02-24T01:08:40.381Z,73.61
2019-02-24T01:09:40.366Z,73.80
2019-02-24T01:10:40.750Z,73.61
2019-02-24T01:11:40.489Z,73.71
2019-02-24T01:12:40.463Z,73.61
2019-02-24T01:13:40.548Z,73.71
2019-02-24T01:14:40.573Z,73.71
2019-02-24T01:15:40.558Z,73.71
2019-02-24T01:16:40.637Z,73.71
2019-02-24T01:17:40.940Z,73.51
2019-02-24T01:18:40.650Z,73.71
2019-02-24T01:19:40.684Z,73.71
2019-02-24T01:20:40.712Z,73.71
2019-02-24T01:21:40.747Z,73.71
2019-02-24T01:22:40.833Z,73.61
2019-02-24T01:23:40.854Z,73.61
2019-02-24T01:24:41.185Z,73.71
2019-02-24T01:25:40.874Z,73.61
2019-02-24T01:26:40.918Z,73.71
2019-02-24T01:27:40.942Z,73.71
2019-02-24T01:28:41.014Z,73.61
2019-02-24T01:29:41.047Z,73.71
2019-02-24T01:30:41.028Z,73.71
2019-02-24T01:31:41.077Z,73.71
2019-02-24T01:32:41.164Z,73.71
2019-02-24T01:33:41.171Z,73.61
2019-02-24T01:34:41.147Z,73.61
2019-02-24T01:35:41.179Z,73.71
2019-02-24T01:36:41.259Z,73.80
2019-02-24T01:37:41.541Z,73.71
2019-02-24T01:38:41.320Z,73.61
2019-02-24T01:39:41.307Z,73.61
2019-02-24T01:40:41.338Z,73.61
2019-02-24T01:41:41.422Z,73.71
2019-02-24T01:42:41.454Z,73.71
2019-02-24T01:43:41.727Z,73.61
2019-02-24T01:44:41.514Z,73.71
2019-02-24T01:45:41.546Z,73.61
2019-02-24T01:46:41.522Z,73.71
2019-02-24T01:47:41.616Z,73.71
2019-02-24T01:48:41.589Z,73.71
2019-02-24T01:49:41.975Z,73.71
2019-02-24T01:50:41.656Z,73.71
2019-02-24T01:51:41.728Z,73.71
2019-02-24T01:52:41.720Z,73.61
2019-02-24T01:53:41.747Z,73.71
2019-02-24T01:54:41.828Z,73.61
2019-02-24T01:56:42.188Z,73.71
2019-02-24T01:57:41.919Z,73.71
2019-02-24T01:58:41.955Z,73.71
2019-02-24T01:59:41.927Z,73.71
2019-02-24T02:00:41.968Z,73.71
2019-02-24T02:01:42.044Z,73.51
2019-02-24T02:02:42.026Z,73.71
2019-02-24T02:03:42.106Z,73.71
2019-02-24T02:04:42.082Z,73.71
2019-02-24T02:05:42.115Z,73.61
2019-02-24T02:06:42.199Z,73.90
2019-02-24T02:07:42.176Z,73.99
2019-02-24T02:08:42.514Z,74.09
2019-02-24T02:09:42.289Z,73.71
2019-02-24T02:10:42.324Z,73.61
2019-02-24T02:11:42.302Z,74.09
2019-02-24T02:12:42.332Z,73.99
2019-02-24T02:13:42.383Z,73.99
2019-02-24T02:14:42.420Z,74.09
2019-02-24T02:15:42.787Z,73.99
2019-02-24T02:16:42.458Z,73.99
2019-02-24T02:17:42.546Z,73.90
2019-02-24T02:18:42.529Z,74.09
2019-02-24T02:19:42.602Z,74.09
2019-02-24T02:20:42.581Z,74.19
2019-02-24T02:21:42.666Z,74.09
2019-02-24T02:22:42.949Z,74.09
2019-02-24T02:24:42.766Z,73.71
2019-02-24T02:25:42.801Z,73.71
2019-02-24T02:26:42.768Z,73.80
2019-02-24T02:27:42.801Z,73.71
2019-02-24T02:28:44.209Z,73.99
2019-02-24T02:29:43.164Z,73.99
2019-02-24T02:30:42.948Z,74.19
2019-02-24T02:31:42.927Z,74.19
2019-02-24T02:32:42.961Z,73.71
2019-02-24T02:33:43.058Z,73.71
2019-02-24T02:34:43.023Z,73.61
2019-02-24T02:35:43.105Z,73.99
2019-02-24T02:36:43.387Z,74.09
2019-02-24T02:37:43.119Z,73.90
2019-02-24T02:38:43.206Z,73.90
2019-02-24T02:39:43.182Z,74.19
2019-02-24T02:40:43.210Z,73.90
2019-02-24T02:41:43.303Z,74.38
2019-02-24T02:42:43.276Z,74.09
2019-02-24T02:43:43.598Z,73.99
2019-02-24T02:44:43.407Z,73.99
2019-02-24T02:45:43.413Z,73.90
2019-02-24T02:46:43.399Z,74.19
2019-02-24T02:47:43.476Z,74.09
2019-02-24T02:48:43.468Z,73.77
2019-02-24T02:49:43.802Z,74.25
2019-02-24T02:50:43.525Z,74.19
2019-02-24T02:51:43.550Z,74.15
2019-02-24T02:52:43.640Z,73.90
2019-02-24T02:53:43.668Z,73.96
2019-02-24T02:54:43.697Z,74.09
2019-02-24T02:55:43.990Z,73.61
2019-02-24T02:56:43.712Z,73.90
2019-02-24T02:57:43.786Z,73.96
2019-02-24T02:58:53.653Z,73.96
2019-02-24T02:59:43.924Z,73.57
2019-02-24T03:00:43.846Z,73.77
2019-02-24T03:01:44.164Z,73.80
2019-02-24T03:02:43.901Z,74.34
2019-02-24T03:03:43.972Z,74.44
2019-02-24T03:04:44.007Z,74.86
2019-02-24T03:05:44.039Z,74.57
2019-02-24T03:06:44.069Z,74.54
2019-02-24T03:07:44.102Z,74.86
2019-02-24T03:08:44.381Z,74.44
2019-02-24T03:09:44.167Z,74.54
2019-02-24T03:10:44.141Z,74.54
2019-02-24T03:11:44.180Z,74.54
2019-02-24T03:12:44.203Z,74.76
2019-02-24T03:13:44.239Z,74.54
2019-02-24T03:14:44.313Z,74.44
2019-02-24T03:15:44.605Z,74.54
2019-02-24T03:16:44.383Z,74.76
2019-02-24T03:17:44.408Z,74.92
2019-02-24T03:18:44.388Z,74.82
2019-02-24T03:19:44.469Z,74.82
2019-02-24T03:20:44.463Z,74.73
2019-02-24T03:21:44.531Z,74.92
2019-02-24T03:22:44.834Z,74.73
2019-02-24T03:23:44.596Z,74.73
2019-02-24T03:24:44.580Z,74.73
2019-02-24T03:25:44.660Z,74.76
2019-02-24T03:26:44.695Z,74.76
2019-02-24T03:27:44.676Z,74.73
2019-02-24T03:28:44.751Z,74.54
2019-02-24T03:29:45.091Z,74.54
2019-02-24T03:30:44.764Z,74.76
2019-02-24T03:31:44.796Z,74.86
2019-02-24T03:32:44.831Z,74.44
2019-02-24T03:33:45.309Z,74.63
2019-02-24T03:34:44.938Z,74.44
2019-02-24T03:35:44.918Z,74.57
2019-02-24T03:36:45.256Z,74.54
2019-02-24T03:37:45.035Z,74.82
2019-02-24T03:38:45.072Z,74.82
2019-02-24T03:39:45.079Z,74.48
2019-02-24T03:40:45.081Z,74.82
2019-02-24T03:41:45.159Z,74.54
2019-02-24T03:42:45.188Z,75.02
2019-02-24T03:43:45.469Z,74.73
2019-02-24T03:44:45.196Z,74.73
2019-02-24T03:45:45.286Z,74.82
2019-02-24T03:46:45.263Z,74.73
2019-02-24T03:47:45.294Z,74.73
2019-02-24T03:48:45.429Z,74.73
2019-02-24T03:49:45.364Z,74.73
2019-02-24T03:50:45.693Z,74.54
2019-02-24T03:51:45.416Z,74.54
2019-02-24T03:52:45.451Z,74.92
2019-02-24T03:53:45.481Z,74.44
2019-02-24T03:54:45.563Z,74.34
2019-02-24T03:55:45.546Z,74.34
2019-02-24T03:56:45.570Z,74.54
2019-02-24T03:57:45.899Z,74.54
2019-02-24T03:58:45.685Z,74.34
2019-02-24T03:59:45.667Z,74.54
2019-02-24T04:00:45.747Z,74.63
2019-02-24T04:01:45.801Z,74.34
2019-02-24T04:03:45.889Z,74.73
2019-02-24T04:04:46.123Z,74.73
2019-02-24T04:05:45.900Z,74.82
2019-02-24T04:07:45.914Z,74.73
2019-02-24T04:08:46.002Z,74.73
2019-02-24T04:09:45.970Z,74.54
2019-02-24T04:10:46.053Z,74.25
2019-02-24T04:11:46.044Z,74.34
2019-02-24T04:12:46.074Z,74.25
2019-02-24T04:13:46.144Z,74.34
2019-02-24T04:14:46.197Z,74.73
2019-02-24T04:15:46.164Z,74.82
2019-02-24T04:16:46.192Z,74.54
2019-02-24T04:17:46.523Z,74.73
2019-02-24T04:18:46.307Z,74.92
2019-02-24T04:19:46.287Z,74.82
2019-02-24T04:20:46.360Z,74.73
2019-02-24T04:21:46.405Z,74.73
2019-02-24T04:22:46.381Z,75.02
2019-02-24T04:23:46.799Z,74.92
2019-02-24T04:24:46.443Z,74.92
2019-02-24T04:25:46.471Z,74.82
2019-02-24T04:26:46.554Z,74.92
2019-02-24T04:27:46.534Z,74.82
2019-02-24T04:28:46.566Z,74.82
2019-02-24T04:29:46.942Z,74.82
2019-02-24T04:30:46.678Z,74.92
2019-02-24T04:31:46.651Z,74.73
2019-02-24T04:32:46.704Z,74.82
2019-02-24T04:33:46.770Z,74.73
2019-02-24T04:34:46.815Z,74.73
2019-02-24T04:35:47.082Z,74.73
2019-02-24T04:36:46.867Z,74.73
2019-02-24T04:37:46.898Z,74.92
2019-02-24T04:38:46.869Z,74.82
2019-02-24T04:39:46.952Z,74.92
2019-02-24T04:40:46.983Z,74.73
2019-02-24T04:41:47.017Z,74.73
2019-02-24T04:42:47.319Z,74.92
2019-02-24T04:43:47.032Z,74.54
2019-02-24T04:44:47.106Z,75.02
2019-02-24T04:46:47.174Z,75.11
2019-02-24T04:47:47.153Z,74.82
2019-02-24T04:48:47.180Z,74.73
2019-02-24T04:49:47.513Z,74.92
2019-02-24T04:50:47.293Z,75.11
2019-02-24T04:51:47.277Z,75.11
2019-02-24T04:52:47.308Z,75.02
2019-02-24T04:54:47.370Z,75.02
2019-02-24T04:55:47.458Z,74.92
2019-02-24T04:56:47.733Z,74.82
2019-02-24T04:57:47.515Z,75.21
2019-02-24T04:59:47.576Z,75.21
2019-02-24T05:00:47.555Z,75.21
2019-02-24T05:01:47.588Z,75.02
2019-02-24T05:02:47.615Z,74.44
2019-02-24T05:03:47.961Z,74.92
2019-02-24T05:04:47.673Z,74.54
2019-02-24T05:06:47.792Z,74.54
2019-02-24T05:07:47.767Z,74.82
2019-02-24T05:08:47.870Z,74.73
2019-02-24T05:09:47.883Z,74.54
2019-02-24T05:10:48.175Z,74.54
2019-02-24T05:11:47.897Z,74.92
2019-02-24T05:12:47.925Z,74.82
2019-02-24T05:13:48.008Z,74.73
2019-02-24T05:14:48.048Z,74.54
2019-02-24T05:16:48.113Z,74.54
2019-02-24T05:17:48.378Z,74.25
2019-02-24T05:18:48.160Z,74.25
2019-02-24T05:19:48.195Z,74.34
2019-02-24T05:20:48.275Z,74.73
2019-02-24T05:21:48.258Z,74.34
2019-02-24T05:23:48.314Z,74.25
2019-02-24T05:24:48.657Z,74.54
2019-02-24T05:25:48.383Z,74.34
2019-02-24T05:26:48.362Z,74.44
2019-02-24T05:27:48.397Z,74.63
2019-02-24T05:28:48.481Z,74.34
2019-02-24T05:29:48.505Z,74.54
2019-02-24T05:30:48.531Z,74.44
2019-02-24T05:31:48.877Z,74.44
2019-02-24T05:32:48.547Z,74.44
2019-02-24T05:33:48.620Z,74.34
2019-02-24T05:34:48.656Z,74.15
2019-02-24T05:35:48.933Z,74.73
2019-02-24T05:36:48.728Z,74.44
2019-02-24T05:37:48.753Z,74.44
2019-02-24T05:38:49.041Z,74.54
2019-02-24T05:39:48.810Z,74.63
2019-02-24T05:40:48.789Z,74.63
2019-02-24T05:41:48.875Z,74.54
2019-02-24T05:42:48.907Z,74.44
2019-02-24T05:43:48.936Z,74.34
2019-02-24T05:44:48.923Z,74.63
2019-02-24T05:45:49.245Z,74.54
2019-02-24T05:46:49.029Z,74.34
2019-02-24T05:47:49.018Z,74.34
2019-02-24T05:48:49.045Z,74.73
2019-02-24T05:49:49.119Z,74.73
2019-02-24T05:50:49.115Z,74.54
2019-02-24T05:51:49.180Z,74.34
2019-02-24T05:53:49.503Z,74.92
2019-02-24T05:54:49.219Z,74.82
2019-02-24T05:55:49.254Z,74.44
2019-02-24T05:56:49.333Z,74.92
2019-02-24T05:57:49.365Z,74.54
2019-02-24T05:58:49.343Z,74.73
2019-02-24T05:59:55.238Z,74.73
2019-02-24T06:00:49.709Z,74.21
2019-02-24T06:01:49.490Z,74.54
2019-02-24T06:02:49.521Z,74.34
2019-02-24T06:04:49.580Z,74.73
2019-02-24T06:05:49.615Z,74.73
2019-02-24T06:07:49.624Z,74.92
2019-02-24T06:08:49.958Z,74.73
2019-02-24T06:09:49.704Z,74.50
2019-02-24T06:10:49.767Z,74.54
2019-02-24T06:11:49.758Z,74.73
2019-02-24T06:12:49.793Z,74.92
2019-02-24T06:13:49.820Z,74.79
2019-02-24T06:14:49.846Z,75.07
2019-02-24T06:15:50.168Z,75.27
2019-02-24T06:16:49.903Z,75.40
2019-02-24T06:17:49.980Z,75.56
2019-02-24T06:18:49.974Z,75.21
2019-02-24T06:20:50.086Z,75.46
2019-02-24T06:21:50.103Z,75.21
2019-02-24T06:22:50.433Z,75.17
2019-02-24T06:23:50.266Z,74.98
2019-02-24T06:25:50.232Z,74.88
2019-02-24T06:26:50.219Z,75.21
2019-02-24T06:27:50.306Z,74.73
2019-02-24T06:28:50.341Z,74.98
2019-02-24T06:30:50.637Z,74.69
2019-02-24T06:31:50.365Z,74.69
2019-02-24T06:32:50.398Z,74.82
2019-02-24T06:33:50.536Z,74.98
2019-02-24T06:34:50.511Z,74.88
2019-02-24T06:35:50.590Z,75.07
2019-02-24T06:36:50.571Z,74.73
2019-02-24T06:37:50.961Z,75.11
2019-02-24T06:38:50.640Z,75.02
2019-02-24T06:39:50.916Z,74.69
2019-02-24T06:40:50.647Z,74.92
2019-02-24T06:41:50.674Z,74.92
2019-02-24T06:43:50.786Z,75.07
2019-02-24T06:44:51.064Z,75.07
2019-02-24T06:45:50.865Z,74.79
2019-02-24T06:46:50.827Z,74.82
2019-02-24T06:47:50.915Z,75.11
2019-02-24T06:48:50.895Z,74.79
2019-02-24T06:49:50.970Z,74.98
2019-02-24T06:50:50.950Z,74.88
2019-02-24T06:51:51.286Z,75.02
2019-02-24T06:52:51.064Z,74.88
2019-02-24T06:53:51.110Z,74.69
2019-02-24T06:54:51.074Z,75.11
2019-02-24T06:55:51.099Z,75.21
2019-02-24T06:56:51.186Z,74.60
2019-02-24T06:57:51.213Z,74.79
2019-02-24T06:58:51.601Z,74.79
2019-02-24T06:59:51.281Z,74.79
2019-02-24T07:00:51.379Z,74.88
2019-02-24T07:01:51.340Z,74.82
2019-02-24T07:02:51.364Z,75.11
2019-02-24T07:03:51.354Z,74.73
2019-02-24T07:04:51.381Z,74.98
2019-02-24T07:05:51.722Z,74.92
2019-02-24T07:06:51.503Z,75.21
2019-02-24T07:07:51.483Z,74.98
2019-02-24T07:08:51.557Z,75.11
2019-02-24T07:09:51.590Z,75.07
2019-02-24T07:10:51.584Z,74.98
2019-02-24T07:11:51.643Z,74.60
2019-02-24T07:12:51.990Z,74.40
2019-02-24T07:13:51.715Z,74.63
2019-02-24T07:14:51.738Z,74.63
2019-02-24T07:15:51.717Z,74.44
2019-02-24T07:16:51.813Z,74.54
2019-02-24T07:17:51.786Z,74.69
2019-02-24T07:19:52.142Z,74.82
2019-02-24T07:20:51.878Z,74.73
2019-02-24T07:22:51.989Z,75.31
2019-02-24T07:23:51.964Z,74.92
2019-02-24T07:24:52.004Z,74.79
2019-02-24T07:25:52.377Z,74.82
2019-02-24T07:26:52.056Z,74.98
2019-02-24T07:27:52.143Z,75.02
2019-02-24T07:28:52.118Z,74.92
2019-02-24T07:29:52.205Z,74.88
2019-02-24T07:30:52.238Z,74.88
2019-02-24T07:31:52.510Z,75.11
2019-02-24T07:32:52.251Z,74.88
2019-02-24T07:33:52.278Z,75.02
2019-02-24T07:34:52.311Z,75.02
2019-02-24T07:36:52.414Z,74.82
2019-02-24T07:37:52.448Z,74.92
2019-02-24T07:39:52.515Z,75.02
2019-02-24T07:40:52.490Z,75.11
2019-02-24T07:41:52.578Z,74.92
2019-02-24T07:42:52.619Z,74.92
2019-02-24T07:43:52.887Z,75.02
2019-02-24T07:44:52.616Z,75.02
2019-02-24T07:45:52.697Z,74.92
2019-02-24T07:46:52.686Z,74.44
2019-02-24T07:48:52.787Z,74.63
2019-02-24T07:50:52.795Z,74.44
2019-02-24T07:52:53.165Z,74.63
2019-02-24T07:53:52.953Z,74.44
2019-02-24T07:54:52.970Z,74.82
2019-02-24T07:56:53.363Z,74.73
2019-02-24T07:57:53.067Z,74.63
2019-02-24T07:58:53.044Z,74.82
2019-02-24T07:59:53.391Z,74.82
2019-02-24T08:00:53.118Z,74.82
2019-02-24T08:01:53.143Z,74.73
2019-02-24T08:02:53.222Z,74.73
2019-02-24T08:03:53.199Z,74.92
2019-02-24T08:04:53.278Z,74.73
2019-02-24T08:05:53.326Z,74.34
2019-02-24T08:06:53.339Z,74.34
2019-02-24T08:07:53.327Z,74.63
2019-02-24T08:08:53.374Z,74.25
2019-02-24T08:10:53.469Z,74.44
2019-02-24T08:11:53.444Z,74.25
2019-02-24T08:12:53.778Z,74.44
2019-02-24T08:13:53.557Z,74.34
2019-02-24T08:14:53.542Z,74.44
2019-02-24T08:15:53.604Z,74.34
2019-02-24T08:17:53.696Z,74.54
2019-02-24T08:18:53.862Z,74.34
2019-02-24T08:19:54.030Z,74.05
2019-02-24T08:22:53.808Z,74.54
2019-02-24T08:23:53.876Z,74.05
2019-02-24T08:24:53.857Z,74.15
2019-02-24T08:25:53.944Z,74.25
2019-02-24T08:28:53.973Z,74.05
2019-02-24T08:29:54.063Z,73.86
2019-02-24T08:31:54.123Z,73.86
2019-02-24T08:32:54.105Z,74.05
2019-02-24T08:33:54.438Z,73.86
2019-02-24T08:34:54.165Z,74.05
2019-02-24T08:35:54.193Z,74.15
2019-02-24T08:37:54.311Z,73.86
2019-02-24T08:38:54.338Z,74.05
2019-02-24T08:39:54.329Z,73.96
2019-02-24T08:40:55.090Z,74.05
2019-02-24T08:41:54.431Z,73.96
2019-02-24T08:42:54.466Z,73.57
2019-02-24T08:44:54.524Z,73.67
2019-02-24T08:45:54.556Z,73.77
2019-02-24T08:47:54.866Z,73.71
2019-02-24T08:48:54.666Z,73.86
2019-02-24T08:49:54.625Z,74.05
2019-02-24T08:50:54.715Z,74.05
2019-02-24T08:52:54.740Z,73.77
2019-02-24T08:53:54.812Z,73.67
2019-02-24T08:54:55.082Z,73.86
2019-02-24T08:55:54.868Z,73.96
2019-02-24T08:56:55.694Z,73.90
2019-02-24T08:57:54.887Z,74.05
2019-02-24T08:58:54.920Z,73.86
2019-02-24T08:59:54.985Z,73.86
2019-02-24T09:01:55.057Z,73.99
2019-02-24T09:02:55.438Z,73.90
2019-02-24T09:03:55.080Z,73.96
2019-02-24T09:04:55.098Z,74.05
2019-02-24T09:05:55.185Z,74.05
2019-02-24T09:06:55.156Z,73.96
2019-02-24T09:07:55.244Z,73.67
2019-02-24T09:08:55.268Z,74.09
2019-02-24T09:09:55.556Z,73.99
2019-02-24T09:11:55.362Z,73.77
2019-02-24T09:12:55.416Z,73.42
2019-02-24T09:13:55.424Z,74.09
2019-02-24T09:14:55.507Z,74.09
2019-02-24T09:15:55.504Z,73.99
2019-02-24T09:16:55.772Z,73.90
2019-02-24T09:17:55.559Z,74.19
2019-02-24T09:18:55.589Z,73.90
2019-02-24T09:19:55.625Z,73.71
2019-02-24T09:20:55.593Z,74.29
2019-02-24T09:21:55.626Z,73.99
2019-02-24T09:22:55.708Z,73.71
2019-02-24T09:23:55.992Z,73.42
2019-02-24T09:25:55.809Z,73.90
2019-02-24T09:26:55.789Z,73.22
2019-02-24T09:27:55.868Z,73.22
2019-02-24T09:29:55.932Z,72.74
2019-02-24T09:31:00.718Z,72.84
2019-02-24T09:31:55.935Z,72.84
2019-02-24T09:32:56.019Z,72.84
2019-02-24T09:34:56.027Z,73.03
2019-02-24T09:35:56.075Z,72.84
2019-02-24T09:36:56.141Z,72.84
2019-02-24T09:37:56.477Z,73.03
2019-02-24T09:39:56.266Z,72.84
2019-02-24T09:40:56.277Z,72.84
2019-02-24T09:41:56.310Z,72.84
2019-02-24T09:42:56.334Z,72.94
2019-02-24T09:43:56.322Z,72.94
2019-02-24T09:44:56.342Z,73.03
2019-02-24T09:45:56.426Z,73.13
2019-02-24T09:46:56.415Z,72.55
2019-02-24T09:47:56.492Z,72.55
2019-02-24T09:49:56.505Z,72.84
2019-02-24T09:50:56.840Z,73.03
2019-02-24T09:51:56.579Z,72.94
2019-02-24T09:52:56.653Z,72.74
2019-02-24T09:53:56.711Z,72.65
2019-02-24T09:54:56.706Z,72.74
2019-02-24T09:55:56.740Z,72.84
2019-02-24T09:56:57.038Z,72.74
2019-02-24T09:57:56.808Z,72.65
2019-02-24T09:58:56.844Z,72.94
2019-02-24T09:59:56.824Z,72.74
2019-02-24T10:00:56.851Z,72.94
2019-02-24T10:01:56.926Z,72.84
2019-02-24T10:02:57.696Z,73.03
2019-02-24T10:03:56.997Z,72.94
2019-02-24T10:06:57.096Z,72.84
2019-02-24T10:07:57.138Z,72.84
2019-02-24T10:08:57.106Z,72.74
2019-02-24T10:10:57.222Z,72.65
2019-02-24T10:11:57.284Z,73.03
2019-02-24T10:12:57.293Z,72.36
2019-02-24T10:13:57.410Z,72.74
2019-02-24T10:14:57.296Z,72.55
2019-02-24T10:15:57.367Z,72.45
2019-02-24T10:16:57.659Z,72.84
2019-02-24T10:17:57.432Z,72.84
2019-02-24T10:18:57.475Z,72.36
2019-02-24T10:19:57.499Z,72.45
2019-02-24T10:20:57.482Z,72.45
2019-02-24T10:21:57.567Z,72.36
2019-02-24T10:22:57.536Z,72.07
2019-02-24T10:23:57.882Z,72.07
2019-02-24T10:24:57.669Z,72.07
2019-02-24T10:25:57.687Z,72.07
2019-02-24T10:26:57.742Z,72.30
2019-02-24T10:27:57.760Z,72.07
2019-02-24T10:28:57.836Z,71.97
2019-02-24T10:29:57.813Z,72.07
2019-02-24T10:30:58.096Z,72.17
2019-02-24T10:31:57.876Z,72.07
2019-02-24T10:32:57.908Z,71.59
2019-02-24T10:33:57.934Z,71.97
2019-02-24T10:34:57.970Z,71.59
2019-02-24T10:35:57.964Z,71.69
2019-02-24T10:36:58.076Z,71.62
2019-02-24T10:37:58.311Z,71.69
2019-02-24T10:38:58.096Z,71.91
2019-02-24T10:39:58.130Z,71.78
2019-02-24T10:40:58.154Z,71.91
2019-02-24T10:41:58.191Z,71.72
2019-02-24T10:42:58.218Z,71.62
2019-02-24T10:43:58.211Z,71.62
2019-02-24T10:44:58.540Z,71.53
2019-02-24T10:45:58.315Z,71.53
2019-02-24T10:46:58.354Z,71.49
2019-02-24T10:47:58.388Z,71.34
2019-02-24T10:49:03.348Z,71.53
2019-02-24T10:49:58.385Z,71.34
2019-02-24T10:50:58.470Z,71.24
2019-02-24T10:51:58.757Z,71.04
2019-02-24T10:52:58.484Z,71.24
2019-02-24T10:53:58.579Z,71.04
2019-02-24T10:54:58.607Z,71.04
2019-02-24T10:55:58.641Z,70.66
2019-02-24T10:56:58.661Z,71.14
2019-02-24T10:57:58.700Z,70.86
2019-02-24T10:58:58.969Z,70.86
2019-02-24T10:59:58.752Z,71.04
2019-02-24T11:00:58.747Z,71.24
2019-02-24T11:01:58.825Z,70.28
2019-02-24T11:02:58.855Z,70.66
2019-02-24T11:03:58.883Z,70.18
2019-02-24T11:04:58.877Z,70.86
2019-02-24T11:05:58.905Z,70.95
2019-02-24T11:06:58.931Z,71.24
2019-02-24T11:07:59.024Z,71.04
2019-02-24T11:08:59.052Z,71.24
2019-02-24T11:09:59.074Z,70.47
2019-02-24T11:10:59.219Z,70.47
2019-02-24T11:11:59.426Z,70.66
2019-02-24T11:12:59.183Z,71.24
2019-02-24T11:13:59.257Z,70.47
2019-02-24T11:14:59.265Z,71.04
2019-02-24T11:15:59.277Z,71.04
2019-02-24T11:16:59.324Z,70.95
2019-02-24T11:18:01.483Z,70.95
2019-02-24T11:18:59.428Z,71.04
2019-02-24T11:19:59.526Z,71.04
2019-02-24T11:20:59.495Z,70.95
2019-02-24T11:21:59.504Z,71.04
2019-02-24T11:22:59.615Z,70.95
2019-02-24T11:23:59.872Z,71.14
2019-02-24T11:24:59.582Z,70.56
2019-02-24T11:25:59.705Z,70.56
2019-02-24T11:26:59.625Z,70.66
2019-02-24T11:28:59.629Z,70.56
2019-02-24T11:30:00.053Z,70.47
2019-02-24T11:30:59.739Z,70.56
2019-02-24T11:31:59.784Z,70.28
2019-02-24T11:33:59.915Z,70.47
2019-02-24T11:34:59.858Z,70.66
2019-02-24T11:35:59.988Z,70.76
2019-02-24T11:37:00.199Z,70.47
2019-02-24T11:38:00.018Z,70.60
2019-02-24T11:40:00.025Z,70.28
2019-02-24T11:41:00.004Z,70.37
2019-02-24T11:42:00.097Z,70.28
2019-02-24T11:43:00.123Z,70.09
2019-02-24T11:44:00.411Z,70.18
2019-02-24T11:45:00.316Z,70.37
2019-02-24T11:46:00.216Z,70.47
2019-02-24T11:47:00.255Z,69.79
2019-02-24T11:48:00.282Z,69.89
2019-02-24T11:49:00.324Z,69.79
2019-02-24T11:50:00.359Z,70.12
2019-02-24T11:51:00.680Z,69.83
2019-02-24T11:52:03.863Z,69.83
2019-02-24T11:53:00.392Z,69.35
2019-02-24T11:54:00.423Z,69.54
2019-02-24T11:55:00.500Z,69.45
2019-02-24T11:56:00.539Z,69.35
2019-02-24T11:57:00.520Z,69.73
2019-02-24T11:58:00.607Z,69.64
2019-02-24T11:59:00.585Z,69.45
2019-02-24T12:00:00.700Z,69.54
2019-02-24T12:01:00.696Z,69.64
2019-02-24T12:02:00.683Z,69.25
2019-02-24T12:03:00.712Z,69.15
2019-02-24T12:04:01.041Z,69.25
2019-02-24T12:05:00.829Z,69.25
2019-02-24T12:06:00.811Z,69.25
2019-02-24T12:07:00.833Z,68.96
2019-02-24T12:08:00.878Z,68.77
2019-02-24T12:09:05.299Z,68.87
2019-02-24T12:10:00.980Z,69.06
2019-02-24T12:11:01.267Z,68.68
2019-02-24T12:12:01.055Z,68.87
2019-02-24T12:13:01.044Z,68.87
2019-02-24T12:14:01.118Z,68.87
2019-02-24T12:15:01.090Z,68.77
2019-02-24T12:16:01.177Z,68.87
2019-02-24T12:17:01.158Z,68.87
2019-02-24T12:18:01.493Z,68.77
2019-02-24T12:19:01.240Z,68.77
2019-02-24T12:20:01.259Z,68.48
2019-02-24T12:21:01.358Z,68.48
2019-02-24T12:22:01.375Z,68.19
2019-02-24T12:23:01.405Z,68.48
2019-02-24T12:24:01.693Z,68.38
2019-02-24T12:25:01.538Z,68.96
2019-02-24T12:26:01.492Z,68.29
2019-02-24T12:28:01.561Z,68.10
2019-02-24T12:29:01.546Z,68.38
2019-02-24T12:30:01.875Z,68.38
2019-02-24T12:31:01.608Z,68.48
2019-02-24T12:32:01.638Z,68.38
2019-02-24T12:33:01.725Z,68.19
2019-02-24T12:34:01.769Z,68.58
2019-02-24T12:35:01.740Z,68.48
2019-02-24T12:36:01.819Z,68.48
2019-02-24T12:37:01.935Z,68.48
2019-02-24T12:38:02.175Z,68.68
2019-02-24T12:39:01.912Z,68.58
2019-02-24T12:40:02.023Z,68.38
2019-02-24T12:41:01.978Z,68.38
2019-02-24T12:43:02.295Z,68.19
2019-02-24T12:44:02.078Z,68.19
2019-02-24T12:45:02.060Z,68.00
2019-02-24T12:46:02.091Z,68.19
2019-02-24T12:47:02.121Z,68.29
2019-02-24T12:48:02.203Z,68.19
2019-02-24T12:49:02.240Z,68.38
2019-02-24T12:50:03.587Z,68.29
2019-02-24T12:51:02.249Z,68.10
2019-02-24T12:52:02.274Z,68.19
2019-02-24T12:53:02.318Z,68.29
2019-02-24T12:54:02.399Z,67.81
2019-02-24T12:55:02.385Z,67.81
2019-02-24T12:56:02.419Z,68.00
2019-02-24T12:57:02.742Z,67.61
2019-02-24T12:58:02.480Z,67.81
2019-02-24T12:59:02.510Z,67.81
2019-02-24T13:00:02.585Z,67.61
2019-02-24T13:01:02.578Z,67.90
2019-02-24T13:02:05.614Z,67.71
2019-02-24T13:03:02.683Z,67.71
2019-02-24T13:04:02.965Z,67.90
2019-02-24T13:05:02.742Z,67.61
2019-02-24T13:06:02.775Z,67.52
2019-02-24T13:07:02.764Z,67.52
2019-02-24T13:08:02.849Z,67.61
2019-02-24T13:09:02.831Z,67.42
2019-02-24T13:10:02.862Z,67.52
2019-02-24T13:11:02.947Z,67.61
2019-02-24T13:12:02.922Z,67.52
2019-02-24T13:13:02.956Z,67.52
2019-02-24T13:14:03.040Z,67.61
2019-02-24T13:15:03.489Z,67.81
2019-02-24T13:16:03.109Z,67.71
2019-02-24T13:17:03.385Z,67.52
2019-02-24T13:18:03.118Z,67.61
2019-02-24T13:19:03.154Z,67.61
2019-02-24T13:20:03.180Z,67.52
2019-02-24T13:21:03.262Z,67.71
2019-02-24T13:22:03.304Z,67.71
2019-02-24T13:23:03.325Z,67.84
2019-02-24T13:24:03.610Z,67.46
2019-02-24T13:25:03.342Z,67.46
2019-02-24T13:26:03.378Z,67.42
2019-02-24T13:27:05.488Z,67.61
2019-02-24T13:28:03.463Z,67.65
2019-02-24T13:29:03.473Z,67.55
2019-02-24T13:30:03.568Z,67.94
2019-02-24T13:31:03.538Z,67.55
2019-02-24T13:32:03.621Z,67.84
2019-02-24T13:33:03.614Z,67.84
2019-02-24T13:34:03.694Z,67.55
2019-02-24T13:35:03.665Z,67.36
2019-02-24T13:36:03.709Z,67.55
2019-02-24T13:37:04.132Z,67.36
2019-02-24T13:38:03.765Z,67.36
2019-02-24T13:39:03.794Z,67.36
2019-02-24T13:40:03.832Z,67.46
2019-02-24T13:41:03.859Z,67.36
2019-02-24T13:42:03.971Z,67.55
2019-02-24T13:44:04.261Z,67.36
2019-02-24T13:45:04.095Z,67.55
2019-02-24T13:46:04.076Z,67.16
2019-02-24T13:47:04.112Z,67.07
2019-02-24T13:48:04.097Z,67.16
2019-02-24T13:49:04.136Z,67.07
2019-02-24T13:50:04.466Z,67.10
2019-02-24T13:51:04.191Z,66.82
2019-02-24T13:52:04.223Z,66.43